VYMD/MDL METAR and TAF weather

Enter ICAO airport designator
Station Type Date Time Source
VYMD METAR 2019/02/17 15:30 UTC NOAA

VYMD 171530Z 29002KT 6000 SCT020 19/14 Q1009


Station Type Date Time Source
VYMD Decoded METAR 2019/02/17 15:30 UTC NOAA

Station name not available
Feb 17, 2019 - 10:30 AM EST / 2019.02.17 1530 UTC
Wind: from the WNW (290 degrees) at 2 MPH (2 KT):0
Visibility: 3 mile(s):0
Sky conditions: partly cloudy
Temperature: 66 F (19 C)
Dew Point: 57 F (14 C)
Relative Humidity: 72%
Pressure (altimeter): 29.80 in. Hg (1009 hPa)
ob: VYMD 171530Z 29002KT 6000 SCT020 19/14 Q1009
cycle: 15

Station Type Date Time Source
VYMD TAF 2019/02/17 12:00 UTC NOAA

TAF VYMD 171100Z 1712/1812 18003KT 7000 SCT020
TEMPO 1712/1718 34007KT 6000 HZ SCT020


Example: see airport list